Time;durP1;ratioP1;P1;durP2;ratioP2;P2;SDS_P1;SDS_P2;PMS_P1;PMS_P2;Temp;Humidity;BMP_temperature;BMP_pressure;BME280_temperature;BME280_humidity;BME280_pressure;Samples;Min_cycle;Max_cycle;Signal;HPM_P1;HPM_P2
2023/04/29 00:00:07;;;;;;;3.07;2.00;;;;;;;14.45;100.00;98420.88;4880916;29;20268;-64
2023/04/29 00:02:40;;;;;;;3.70;1.90;;;;;;;14.45;100.00;98420.88;4881539;29;20249;-64
2023/04/29 00:05:07;;;;;;;3.17;1.93;;;;;;;14.43;100.00;98415.78;4878712;29;20577;-64
2023/04/29 00:07:33;;;;;;;3.13;1.77;;;;;;;14.44;100.00;98420.03;4880916;29;20234;-64
2023/04/29 00:10:02;;;;;;;2.87;1.87;;;;;;;14.46;100.00;98410.16;4884533;29;20249;-64
2023/04/29 00:12:30;;;;;;;4.30;2.30;;;;;;;14.52;100.00;98419.16;4878119;29;20357;-64
2023/04/29 00:14:57;;;;;;;5.37;1.80;;;;;;;14.57;100.00;98419.44;4881732;29;20248;-64
2023/04/29 00:17:24;;;;;;;4.00;2.07;;;;;;;14.65;100.00;98423.75;4880081;29;20724;-64
2023/04/29 00:19:51;;;;;;;2.37;1.93;;;;;;;14.67;100.00;98419.13;4883939;29;20731;-64
2023/04/29 00:22:42;;;;;;;2.73;1.90;;;;;;;14.69;100.00;98429.47;4878616;29;20257;-64
2023/04/29 00:25:11;;;;;;;3.00;1.93;;;;;;;14.68;100.00;98431.28;4877227;29;20263;-64
2023/04/29 00:27:38;;;;;;;4.40;2.37;;;;;;;14.71;100.00;98430.94;4880382;29;20233;-64
2023/04/29 00:30:06;;;;;;;3.83;2.50;;;;;;;14.65;100.00;98431.63;4892113;29;20236;-64
2023/04/29 00:32:32;;;;;;;5.43;2.20;;;;;;;14.66;100.00;98430.63;4895268;29;20570;-64
2023/04/29 00:34:59;;;;;;;2.97;2.17;;;;;;;14.73;100.00;98430.78;4896472;29;20657;-64
2023/04/29 00:37:26;;;;;;;5.20;1.90;;;;;;;14.81;100.00;98435.09;4896065;29;20694;-64
2023/04/29 00:39:52;;;;;;;3.23;2.10;;;;;;;14.79;100.00;98440.56;4881327;29;20245;-64
2023/04/29 00:42:27;;;;;;;2.73;2.10;;;;;;;14.81;100.00;98435.94;4883155;29;20695;-64
2023/04/29 00:44:54;;;;;;;2.13;1.93;;;;;;;14.82;100.00;98434.94;4881548;29;20225;-64
2023/04/29 00:47:25;;;;;;;2.90;2.23;;;;;;;14.83;100.00;98441.00;4880012;29;20321;-64
2023/04/29 00:49:52;;;;;;;2.30;2.10;;;;;;;14.84;100.00;98443.41;4889653;29;20222;-64
2023/04/29 00:52:25;;;;;;;3.10;2.20;;;;;;;14.82;100.00;98432.31;4882425;29;20316;-64
2023/04/29 00:54:52;;;;;;;6.53;2.90;;;;;;;14.82;100.00;98436.72;4898157;29;20222;-64
2023/04/29 00:57:27;;;;;;;5.53;2.43;;;;;;;14.81;100.00;98440.34;4898447;29;20239;-64
2023/04/29 00:59:55;;;;;;;5.50;2.27;;;;;;;14.78;100.00;98440.72;4897778;29;20220;-64
2023/04/29 01:02:25;;;;;;;5.07;2.40;;;;;;;14.76;100.00;98441.72;4879622;29;20238;-64
2023/04/29 01:04:52;;;;;;;4.27;2.40;;;;;;;14.83;100.00;98446.25;4899673;29;20235;-64
2023/04/29 01:07:31;;;;;;;5.57;2.97;;;;;;;14.82;100.00;98444.63;4882065;29;20636;-64
2023/04/29 01:10:03;;;;;;;3.20;2.70;;;;;;;14.84;100.00;98442.63;4887366;29;20246;-64
2023/04/29 01:12:41;;;;;;;3.47;2.07;;;;;;;14.76;100.00;98443.53;4881473;29;20270;-64
2023/04/29 01:15:17;;;;;;;5.07;2.40;;;;;;;14.74;100.00;98456.06;4892778;29;20286;-64
2023/04/29 01:17:49;;;;;;;3.23;2.47;;;;;;;14.71;100.00;98449.31;4887598;29;20298;-64
2023/04/29 01:20:19;;;;;;;3.10;2.17;;;;;;;14.69;100.00;98448.69;4894930;29;20687;-63
2023/04/29 01:22:46;;;;;;;4.10;3.03;;;;;;;14.65;100.00;98444.78;4884425;29;20235;-63
2023/04/29 01:25:15;;;;;;;4.93;2.67;;;;;;;14.63;100.00;98446.75;4898842;29;20227;-63
2023/04/29 01:28:19;;;;;;;4.97;2.60;;;;;;;14.59;100.00;98448.13;4878104;29;20227;-63
2023/04/29 01:30:57;;;;;;;6.07;2.83;;;;;;;14.57;100.00;98456.19;4883703;29;20227;-63
2023/04/29 01:33:32;;;;;;;3.77;2.87;;;;;;;14.53;100.00;98449.66;4883453;29;20621;-63
2023/04/29 01:36:12;;;;;;;4.63;2.83;;;;;;;14.51;100.00;98449.03;4900626;29;20244;-63
2023/04/29 01:38:45;;;;;;;5.50;3.00;;;;;;;14.46;100.00;98443.50;4898734;29;20234;-64
2023/04/29 01:41:17;;;;;;;5.27;2.80;;;;;;;14.42;100.00;98447.50;4898031;29;20266;-63
2023/04/29 01:43:51;;;;;;;4.63;2.90;;;;;;;14.40;100.00;98438.97;4901337;29;20259;-63
2023/04/29 01:46:23;;;;;;;4.00;3.17;;;;;;;14.38;100.00;98433.09;4903118;28;20983;-63
2023/04/29 01:48:53;;;;;;;7.17;3.40;;;;;;;14.36;100.00;98437.72;4902824;29;20234;-63
2023/04/29 01:51:20;;;;;;;6.43;3.00;;;;;;;14.35;100.00;98444.75;4901634;28;20241;-63
2023/04/29 01:53:48;;;;;;;4.47;3.00;;;;;;;14.38;100.00;98441.75;4899421;29;20693;-63
2023/04/29 01:56:16;;;;;;;5.50;2.80;;;;;;;14.35;100.00;98446.56;4897990;29;20288;-63
2023/04/29 01:59:06;;;;;;;7.67;2.60;;;;;;;14.30;100.00;98440.06;4898801;29;20253;-63
2023/04/29 02:01:52;;;;;;;3.30;2.97;;;;;;;14.30;100.00;98442.69;4887048;29;20244;-63
2023/04/29 02:04:19;;;;;;;4.07;3.40;;;;;;;14.27;100.00;98453.53;4898643;29;20230;-63
2023/04/29 02:06:46;;;;;;;4.27;3.00;;;;;;;14.28;100.00;98451.75;4899490;29;20238;-63
2023/04/29 02:09:13;;;;;;;4.33;3.10;;;;;;;14.25;100.00;98450.28;4897084;29;20234;-63
2023/04/29 02:11:49;;;;;;;6.03;3.17;;;;;;;14.23;100.00;98452.25;4898139;29;20228;-63
2023/04/29 02:14:16;;;;;;;3.73;3.20;;;;;;;14.18;100.00;98457.22;4895509;29;20239;-63
2023/04/29 02:16:44;;;;;;;8.90;3.17;;;;;;;14.14;100.00;98462.03;4891150;29;20241;-63
2023/04/29 02:19:10;;;;;;;4.67;2.80;;;;;;;14.07;100.00;98463.75;4887371;29;20235;-63
2023/04/29 02:21:39;;;;;;;6.63;2.77;;;;;;;14.07;100.00;98470.78;4888237;29;20246;-63
2023/04/29 02:24:06;;;;;;;4.83;2.87;;;;;;;14.00;100.00;98468.06;4897774;29;20236;-63
2023/04/29 02:26:33;;;;;;;4.63;2.80;;;;;;;13.95;100.00;98465.94;4900821;29;20767;-63
2023/04/29 02:29:01;;;;;;;5.20;2.83;;;;;;;13.92;100.00;98471.56;4888590;29;20266;-63
2023/04/29 02:31:28;;;;;;;4.23;2.63;;;;;;;13.86;100.00;98474.88;4887687;29;20257;-63
2023/04/29 02:33:55;;;;;;;3.73;2.93;;;;;;;13.82;100.00;98477.06;4897044;29;20263;-63
2023/04/29 02:36:23;;;;;;;2.93;2.37;;;;;;;13.78;100.00;98467.91;4883554;29;20236;-63
2023/04/29 02:38:54;;;;;;;3.43;2.60;;;;;;;13.76;100.00;98472.50;4889152;29;20606;-63
2023/04/29 02:41:20;;;;;;;6.23;2.57;;;;;;;13.78;100.00;98472.34;4898036;29;20241;-63
2023/04/29 02:43:48;;;;;;;4.33;2.73;;;;;;;13.71;100.00;98478.28;4884881;29;20708;-63
2023/04/29 02:46:17;;;;;;;4.13;2.60;;;;;;;13.70;100.00;98475.81;4896014;29;20250;-63
2023/04/29 02:48:44;;;;;;;5.73;2.70;;;;;;;13.65;100.00;98478.97;4899746;29;20234;-63
2023/04/29 02:51:13;;;;;;;4.43;2.90;;;;;;;13.58;100.00;98486.72;4879093;29;20234;-63
2023/04/29 02:53:39;;;;;;;4.90;3.37;;;;;;;13.55;100.00;98478.38;4896705;29;20260;-63
2023/04/29 02:56:06;;;;;;;5.73;2.73;;;;;;;13.50;100.00;98492.00;4881220;29;20244;-63
2023/04/29 02:58:33;;;;;;;3.77;2.73;;;;;;;13.46;100.00;98495.16;4881830;29;20691;-63
2023/04/29 03:00:59;;;;;;;5.20;3.03;;;;;;;13.40;100.00;98491.38;4890024;29;20238;-63
2023/04/29 03:03:27;;;;;;;3.20;2.90;;;;;;;13.39;100.00;98501.06;4886346;29;20248;-63
2023/04/29 03:05:54;;;;;;;6.70;2.77;;;;;;;13.30;100.00;98491.59;4900480;29;20331;-63
2023/04/29 03:08:21;;;;;;;3.73;2.83;;;;;;;13.22;100.00;98489.03;4887408;29;20235;-63
2023/04/29 03:10:47;;;;;;;3.63;2.70;;;;;;;13.20;100.00;98493.63;4897714;29;20260;-63
2023/04/29 03:13:14;;;;;;;4.57;2.87;;;;;;;13.16;100.00;98490.53;4895530;29;20221;-63
2023/04/29 03:15:43;;;;;;;6.13;2.90;;;;;;;13.04;100.00;98490.06;4897115;29;20783;-63
2023/04/29 03:18:11;;;;;;;6.77;3.13;;;;;;;12.97;100.00;98487.31;4895161;29;20233;-63
2023/04/29 03:20:39;;;;;;;3.77;2.57;;;;;;;12.92;100.00;98488.81;4897932;29;20245;-63
2023/04/29 03:23:06;;;;;;;5.40;3.23;;;;;;;12.84;100.00;98490.47;4896091;29;20265;-63
2023/04/29 03:25:32;;;;;;;5.23;2.93;;;;;;;12.79;100.00;98491.97;4898237;29;20234;-63
2023/04/29 03:27:59;;;;;;;7.40;2.73;;;;;;;12.81;100.00;98490.00;4884360;29;20230;-63
2023/04/29 03:33:07;;;;;;;9.97;2.77;;;;;;;12.64;100.00;98494.47;4967931;23;20237;-63
2023/04/29 03:35:34;;;;;;;5.63;2.50;;;;;;;12.60;100.00;98491.34;4911574;29;20236;-63
2023/04/29 03:38:28;;;;;;;4.40;2.43;;;;;;;12.70;100.00;98497.22;4934483;28;20455;-63
2023/04/29 03:40:55;;;;;;;5.63;2.70;;;;;;;12.68;100.00;98493.16;4934247;28;20896;-63
2023/04/29 03:43:22;;;;;;;5.63;2.30;;;;;;;12.68;100.00;98499.19;4943633;28;20227;-63
2023/04/29 03:45:49;;;;;;;4.60;2.57;;;;;;;12.66;100.00;98505.59;4925872;28;20323;-63
2023/04/29 03:48:20;;;;;;;4.80;2.40;;;;;;;12.64;100.00;98504.94;4927143;28;20241;-63
2023/04/29 03:50:47;;;;;;;3.27;2.40;;;;;;;12.52;100.00;98513.16;4963175;28;20278;-63
2023/04/29 03:53:14;;;;;;;7.33;2.77;;;;;;;12.45;100.00;98506.09;4928119;28;20254;-63
2023/04/29 03:55:42;;;;;;;2.90;2.40;;;;;;;12.47;100.00;98512.00;4932359;29;20252;-63
2023/04/29 03:58:09;;;;;;;4.43;2.77;;;;;;;12.42;100.00;98511.69;4928557;28;20233;-63
2023/04/29 04:00:36;;;;;;;4.47;2.37;;;;;;;12.40;100.00;98509.25;4948591;28;20240;-63
2023/04/29 04:03:07;;;;;;;3.23;2.17;;;;;;;12.43;100.00;98513.31;4944807;28;20254;-63
2023/04/29 04:05:35;;;;;;;2.37;2.17;;;;;;;12.42;100.00;98512.50;4930928;29;20222;-63
2023/04/29 04:08:08;;;;;;;2.53;2.30;;;;;;;12.45;100.00;98513.97;4959236;28;20240;-63
2023/04/29 04:10:48;;;;;;;6.53;3.00;;;;;;;12.38;100.00;98516.44;4948182;28;20580;-63
2023/04/29 04:13:36;;;;;;;3.10;2.37;;;;;;;12.40;100.00;98514.47;4960106;28;20237;-63
2023/04/29 04:16:04;;;;;;;2.77;2.40;;;;;;;12.34;100.00;98521.16;4943741;28;20238;-63
2023/04/29 04:18:31;;;;;;;3.67;2.37;;;;;;;12.36;100.00;98524.44;4931494;28;20265;-63
2023/04/29 04:20:57;;;;;;;10.40;2.90;;;;;;;12.33;100.00;98523.97;4962700;28;20556;-63
2023/04/29 04:23:25;;;;;;;4.23;2.70;;;;;;;12.32;100.00;98524.94;4942779;28;20229;-63
2023/04/29 04:25:56;;;;;;;5.20;2.70;;;;;;;12.28;100.00;98526.25;4963279;28;20692;-63
2023/04/29 04:28:43;;;;;;;5.10;2.67;;;;;;;12.25;100.00;98522.16;4942196;28;20241;-63
2023/04/29 04:31:16;;;;;;;4.47;2.90;;;;;;;12.23;100.00;98532.81;4933585;28;20300;-63
2023/04/29 04:33:43;;;;;;;2.80;2.13;;;;;;;12.16;100.00;98529.19;4962722;28;20583;-63
2023/04/29 04:36:09;;;;;;;2.73;2.20;;;;;;;12.06;100.00;98545.06;4926846;28;20232;-63
2023/04/29 04:38:36;;;;;;;3.67;2.50;;;;;;;11.95;100.00;98537.50;4961604;28;20241;-63
2023/04/29 04:41:09;;;;;;;4.37;2.53;;;;;;;11.90;100.00;98553.66;4927082;28;20234;-63
2023/04/29 04:43:38;;;;;;;5.33;2.17;;;;;;;11.80;100.00;98555.59;4929345;28;20246;-63
2023/04/29 04:46:11;;;;;;;3.50;2.60;;;;;;;11.72;100.00;98555.59;4943817;28;20573;-63
2023/04/29 04:48:40;;;;;;;7.67;5.07;;;;;;;11.63;100.00;98552.97;4939841;28;20768;-62
2023/04/29 04:51:10;;;;;;;4.80;3.10;;;;;;;11.51;100.00;98564.69;4944829;28;20271;-62
2023/04/29 04:53:36;;;;;;;5.20;2.50;;;;;;;11.34;100.00;98558.56;4947553;28;20240;-62
2023/04/29 04:56:09;;;;;;;5.07;2.70;;;;;;;11.34;100.00;98569.03;4923247;28;20769;-63
2023/04/29 04:58:36;;;;;;;4.43;2.77;;;;;;;11.24;100.00;98566.56;4926205;28;20657;-63
2023/04/29 05:01:04;;;;;;;5.00;2.40;;;;;;;11.19;100.00;98574.03;4943532;28;20240;-63
2023/04/29 05:03:31;;;;;;;3.93;2.30;;;;;;;11.10;100.00;98569.75;4916728;28;20262;-63
2023/04/29 05:05:59;;;;;;;4.93;2.03;;;;;;;11.04;100.00;98571.19;4919520;29;20230;-63
2023/04/29 05:08:27;;;;;;;3.23;2.20;;;;;;;10.90;100.00;98570.78;4940194;28;20233;-63
2023/04/29 05:10:57;;;;;;;4.10;2.47;;;;;;;10.87;100.00;98572.88;4919366;28;20851;-63
2023/04/29 05:13:25;;;;;;;12.40;7.40;;;;;;;10.88;100.00;98577.13;4908206;28;21341;-63
2023/04/29 05:15:52;;;;;;;3.23;2.30;;;;;;;10.88;100.00;98585.78;4927139;29;20251;-63
2023/04/29 05:18:22;;;;;;;2.87;1.93;;;;;;;10.87;100.00;98589.38;4944260;28;20252;-63
2023/04/29 05:20:51;;;;;;;7.50;2.30;;;;;;;10.85;100.00;98577.44;4930052;28;20244;-63
2023/04/29 05:23:18;;;;;;;4.07;2.23;;;;;;;10.89;100.00;98586.59;4943767;28;20293;-63
2023/04/29 05:25:46;;;;;;;4.43;2.10;;;;;;;10.89;100.00;98586.59;4929082;28;20225;-63
2023/04/29 05:28:13;;;;;;;3.70;2.40;;;;;;;10.88;100.00;98590.19;4927947;28;20625;-63
2023/04/29 05:30:43;;;;;;;4.17;2.13;;;;;;;10.94;100.00;98579.13;4946048;28;20238;-63
2023/04/29 05:33:10;;;;;;;4.37;2.20;;;;;;;10.97;100.00;98586.66;4922213;28;20251;-63
2023/04/29 05:35:39;;;;;;;3.20;2.40;;;;;;;11.07;100.00;98582.16;4928041;29;20728;-63
2023/04/29 05:38:06;;;;;;;2.87;2.40;;;;;;;11.12;100.00;98586.09;4922849;28;20295;-63
2023/04/29 05:40:37;;;;;;;3.50;2.20;;;;;;;11.22;100.00;98598.03;4945993;28;20624;-63
2023/04/29 05:43:31;;;;;;;3.77;2.43;;;;;;;11.35;100.00;98608.09;4926641;28;20233;-63
2023/04/29 05:46:00;;;;;;;5.30;2.47;;;;;;;11.43;100.00;98606.50;4929704;28;20233;-63
2023/04/29 05:48:28;;;;;;;3.13;2.63;;;;;;;11.56;100.00;98616.50;4944143;28;20736;-63
2023/04/29 05:50:54;;;;;;;5.63;2.50;;;;;;;11.61;100.00;98617.69;4915426;28;20693;-63
2023/04/29 05:53:21;;;;;;;4.47;2.77;;;;;;;11.54;100.00;98624.50;4909734;28;20247;-63
2023/04/29 05:55:49;;;;;;;3.80;2.63;;;;;;;11.61;100.00;98619.47;4930924;28;20252;-63
2023/04/29 05:58:16;;;;;;;3.20;2.67;;;;;;;11.59;100.00;98624.88;4909905;28;20243;-63
2023/04/29 06:00:43;;;;;;;4.27;2.13;;;;;;;11.65;100.00;98637.31;4932241;28;20238;-63
2023/04/29 06:03:18;;;;;;;3.27;2.47;;;;;;;11.76;100.00;98638.81;4941150;28;20249;-63
2023/04/29 06:05:45;;;;;;;3.27;2.70;;;;;;;11.90;100.00;98639.97;4923864;28;20318;-63
2023/04/29 06:08:24;;;;;;;4.63;2.40;;;;;;;11.99;100.00;98642.63;4945455;28;32436;-63
2023/04/29 06:10:53;;;;;;;5.00;2.50;;;;;;;12.04;100.00;98645.63;4947584;28;20328;-63
2023/04/29 06:13:20;;;;;;;6.13;3.93;;;;;;;12.33;100.00;98649.59;4942436;28;20238;-63
2023/04/29 06:15:47;;;;;;;5.00;3.10;;;;;;;12.36;100.00;98644.84;4945634;28;20226;-63
2023/04/29 06:18:15;;;;;;;5.43;3.40;;;;;;;12.53;100.00;98653.56;4935221;28;20249;-63
2023/04/29 06:20:44;;;;;;;3.93;2.93;;;;;;;12.54;100.00;98649.94;4945897;28;20804;-63
2023/04/29 06:23:11;;;;;;;3.40;2.60;;;;;;;12.59;100.00;98646.84;4931606;28;20226;-63
2023/04/29 06:25:38;;;;;;;3.97;3.20;;;;;;;12.57;100.00;98659.25;4930191;28;20229;-63
2023/04/29 06:28:08;;;;;;;5.60;3.10;;;;;;;12.71;100.00;98663.06;4942706;28;20574;-63
2023/04/29 06:30:37;;;;;;;4.90;3.37;;;;;;;12.76;100.00;98654.69;4941788;28;20234;-63
2023/04/29 06:33:04;;;;;;;4.50;2.90;;;;;;;12.98;99.50;98661.88;4925543;28;20249;-63
2023/04/29 06:35:30;;;;;;;6.33;3.70;;;;;;;12.96;99.54;98661.22;4928371;28;20566;-63
2023/04/29 06:38:11;;;;;;;5.20;3.90;;;;;;;13.17;97.18;98669.56;4926745;28;20237;-63
2023/04/29 06:40:51;;;;;;;4.60;3.60;;;;;;;13.10;99.33;98672.03;4944190;28;20260;-63
2023/04/29 06:43:36;;;;;;;5.00;3.70;;;;;;;12.84;99.32;98665.97;4928709;28;20316;-63
2023/04/29 06:46:21;;;;;;;5.63;3.83;;;;;;;12.99;99.42;98673.16;4927673;28;20320;-63
2023/04/29 06:49:01;;;;;;;5.00;4.03;;;;;;;13.01;97.26;98668.59;4945612;28;20242;-63
2023/04/29 06:51:28;;;;;;;7.53;4.50;;;;;;;12.92;97.46;98670.41;4929697;28;20613;-63
2023/04/29 06:53:56;;;;;;;7.47;4.33;;;;;;;13.09;98.24;98686.13;4947861;28;20299;-63
2023/04/29 06:56:23;;;;;;;5.93;4.50;;;;;;;12.96;98.57;98682.19;4948686;28;20734;-63
2023/04/29 06:58:49;;;;;;;6.10;4.23;;;;;;;13.22;95.66;98691.66;4949594;28;20740;-63
2023/04/29 07:01:16;;;;;;;5.45;4.03;;;;;;;13.35;93.17;98690.31;4945465;28;20444;-63
2023/04/29 07:03:43;;;;;;;6.20;4.13;;;;;;;13.41;96.04;98695.75;4949169;28;20253;-64
2023/04/29 07:06:10;;;;;;;7.17;3.77;;;;;;;13.63;96.51;98697.81;4950819;28;20262;-64
2023/04/29 07:08:36;;;;;;;5.40;4.07;;;;;;;13.76;95.72;98698.09;4948357;28;20244;-63
2023/04/29 07:11:05;;;;;;;7.57;4.50;;;;;;;13.62;95.98;98694.41;4948836;28;20636;-63
2023/04/29 07:13:31;;;;;;;5.13;3.70;;;;;;;13.92;92.87;98693.78;4944172;28;20255;-63
2023/04/29 07:15:58;;;;;;;4.50;3.70;;;;;;;13.98;92.77;98696.53;4920149;29;20254;-63
2023/04/29 07:18:25;;;;;;;6.83;4.47;;;;;;;13.92;89.83;98691.16;4945274;28;20240;-64
2023/04/29 07:20:51;;;;;;;4.83;4.00;;;;;;;13.84;90.60;98695.44;4949093;28;20305;-64
2023/04/29 07:23:18;;;;;;;7.10;5.33;;;;;;;13.93;88.92;98692.78;4942207;28;20318;-64
2023/04/29 07:25:45;;;;;;;5.73;4.50;;;;;;;13.88;87.77;98696.75;4940527;28;20228;-64
2023/04/29 07:28:13;;;;;;;9.23;5.40;;;;;;;13.60;91.27;98703.41;4946524;28;20226;-64
2023/04/29 07:30:40;;;;;;;7.43;4.97;;;;;;;13.83;91.81;98703.47;4942226;28;20231;-64
2023/04/29 07:33:07;;;;;;;6.97;5.37;;;;;;;13.99;89.13;98703.41;4941089;28;20246;-64
2023/04/29 07:35:33;;;;;;;7.47;4.73;;;;;;;14.27;88.13;98705.59;4947235;28;20245;-64
2023/04/29 07:38:00;;;;;;;7.63;5.43;;;;;;;14.18;82.50;98706.63;4925023;29;20220;-64
2023/04/29 07:40:27;;;;;;;7.30;4.90;;;;;;;14.53;83.33;98712.31;4930499;28;20238;-64
2023/04/29 07:42:57;;;;;;;7.10;4.90;;;;;;;14.26;83.38;98708.41;4931322;28;20258;-64
2023/04/29 07:45:25;;;;;;;5.60;4.27;;;;;;;14.23;82.29;98720.03;4944412;28;21440;-64
2023/04/29 07:47:52;;;;;;;7.57;4.67;;;;;;;14.23;82.08;98716.63;4943333;28;20229;-64
2023/04/29 07:50:18;;;;;;;9.07;4.43;;;;;;;14.23;82.35;98725.28;4943345;28;20236;-65
2023/04/29 07:52:45;;;;;;;7.03;5.03;;;;;;;14.20;83.18;98722.22;4953232;28;20251;-65
2023/04/29 07:55:11;;;;;;;7.63;5.03;;;;;;;13.63;85.76;98724.88;4920035;28;20248;-65
2023/04/29 07:57:38;;;;;;;8.60;5.53;;;;;;;13.57;87.62;98721.09;4930536;28;20232;-65
2023/04/29 08:00:07;;;;;;;6.30;5.00;;;;;;;13.75;87.99;98724.53;4936260;28;20237;-65
2023/04/29 08:02:43;;;;;;;8.83;5.43;;;;;;;13.93;85.78;98722.47;4949879;28;20240;-65
2023/04/29 08:05:13;;;;;;;10.00;5.67;;;;;;;13.91;87.03;98736.75;4927715;28;20273;-65
2023/04/29 08:07:39;;;;;;;6.60;5.00;;;;;;;13.91;83.95;98737.56;4944118;28;20231;-65
2023/04/29 08:10:07;;;;;;;6.67;4.40;;;;;;;13.82;86.99;98743.81;4926169;28;20241;-65
2023/04/29 08:12:36;;;;;;;8.33;5.40;;;;;;;13.62;88.21;98744.22;4928940;28;20240;-65
2023/04/29 08:15:03;;;;;;;7.53;5.70;;;;;;;13.43;88.57;98740.97;4943523;28;20236;-65
2023/04/29 08:17:31;;;;;;;6.63;5.17;;;;;;;13.49;88.32;98744.72;4941916;28;20237;-64
2023/04/29 08:19:59;;;;;;;7.90;5.10;;;;;;;13.63;89.03;98742.41;4942363;28;20290;-64
2023/04/29 08:22:26;;;;;;;6.60;5.00;;;;;;;13.77;89.05;98752.22;4926003;28;20244;-64
2023/04/29 08:24:53;;;;;;;7.90;5.80;;;;;;;13.71;87.22;98743.22;4937923;28;20246;-64
2023/04/29 08:27:24;;;;;;;8.87;5.83;;;;;;;13.60;87.78;98753.22;4936863;28;20269;-64
2023/04/29 08:29:51;;;;;;;9.40;6.60;;;;;;;13.85;87.21;98754.81;4947966;28;20725;-64
2023/04/29 08:32:43;;;;;;;10.57;5.70;;;;;;;13.76;86.47;98752.41;4944156;28;20242;-64
2023/04/29 08:35:11;;;;;;;9.10;6.80;;;;;;;13.59;85.22;98755.06;4944078;28;20792;-64
2023/04/29 08:37:37;;;;;;;13.97;6.70;;;;;;;13.80;83.15;98758.91;4946465;28;20238;-64
2023/04/29 08:40:05;;;;;;;8.20;6.10;;;;;;;14.05;80.46;98756.22;4946841;28;20236;-64
2023/04/29 08:42:35;;;;;;;10.70;6.50;;;;;;;14.12;80.39;98759.78;4946139;28;20246;-64
2023/04/29 08:45:02;;;;;;;10.47;6.33;;;;;;;13.83;83.18;98754.16;4948721;28;20294;-64
2023/04/29 08:47:30;;;;;;;8.77;5.53;;;;;;;14.19;84.46;98754.69;4945023;28;20236;-64
2023/04/29 08:49:58;;;;;;;9.20;5.93;;;;;;;14.45;85.85;98757.03;4948133;28;20249;-64
2023/04/29 08:52:26;;;;;;;8.93;5.70;;;;;;;14.50;83.34;98757.31;4945735;28;20334;-64
2023/04/29 08:54:53;;;;;;;10.43;7.40;;;;;;;14.25;81.55;98754.00;4946882;28;20620;-64
2023/04/29 08:57:25;;;;;;;12.17;7.43;;;;;;;14.45;77.83;98757.03;4945236;28;20241;-64
2023/04/29 08:59:52;;;;;;;9.70;7.07;;;;;;;14.42;78.79;98762.63;4947517;28;20238;-64
2023/04/29 09:02:26;;;;;;;9.50;7.00;;;;;;;14.17;79.89;98754.84;4944620;28;20252;-64
2023/04/29 09:05:01;;;;;;;11.93;7.47;;;;;;;14.10;78.80;98756.53;4946381;28;20226;-64
2023/04/29 09:07:31;;;;;;;14.50;7.87;;;;;;;14.20;79.66;98758.97;4944272;28;20233;-64
2023/04/29 09:09:58;;;;;;;10.00;6.83;;;;;;;14.41;79.29;98766.22;4930755;28;20231;-64
2023/04/29 09:12:25;;;;;;;10.23;6.80;;;;;;;14.50;79.40;98769.63;4945953;28;20712;-65
2023/04/29 09:14:51;;;;;;;9.07;6.23;;;;;;;14.39;79.92;98763.75;4947133;28;20239;-64
2023/04/29 09:17:45;;;;;;;11.13;6.30;;;;;;;14.42;79.98;98767.88;4945641;28;20235;-64
2023/04/29 09:20:27;;;;;;;9.20;6.67;;;;;;;14.16;78.11;98769.81;4943659;28;20603;-64
2023/04/29 09:22:56;;;;;;;8.90;6.20;;;;;;;14.02;76.90;98765.25;4944626;28;20664;-64
2023/04/29 09:25:23;;;;;;;9.67;5.50;;;;;;;14.17;77.51;98781.09;4935334;28;20222;-64
2023/04/29 09:27:50;;;;;;;9.43;6.03;;;;;;;14.15;75.99;98775.22;4946138;28;20246;-64
2023/04/29 09:30:18;;;;;;;8.47;5.23;;;;;;;14.65;71.14;98774.97;4943238;28;20215;-64
2023/04/29 09:32:46;;;;;;;7.00;5.00;;;;;;;14.62;70.60;98776.13;4945011;28;20239;-64
2023/04/29 09:35:23;;;;;;;7.90;4.73;;;;;;;14.45;73.63;98778.03;4944312;28;20278;-64
2023/04/29 09:37:50;;;;;;;8.37;5.57;;;;;;;14.47;70.24;98781.31;4944306;28;20476;-64
2023/04/29 09:40:30;;;;;;;7.20;4.87;;;;;;;14.87;71.83;98781.25;4944815;28;20478;-64
2023/04/29 09:42:57;;;;;;;7.97;4.63;;;;;;;14.86;68.46;98777.81;4947341;28;20239;-64
2023/04/29 09:45:34;;;;;;;6.23;4.47;;;;;;;15.15;67.65;98780.72;4942918;28;20314;-65
2023/04/29 09:48:05;;;;;;;6.60;4.50;;;;;;;15.62;66.62;98777.00;4943668;28;20308;-62
2023/04/29 09:50:32;;;;;;;7.00;4.53;;;;;;;15.40;65.26;98773.44;4943072;28;20227;-64
2023/04/29 09:52:59;;;;;;;7.40;4.90;;;;;;;15.84;65.20;98774.47;4946686;28;20295;-64
2023/04/29 09:55:26;;;;;;;7.33;4.73;;;;;;;16.00;65.28;98780.59;4943582;28;20242;-64
2023/04/29 09:57:55;;;;;;;6.60;3.60;;;;;;;16.35;63.16;98779.00;4946322;28;20237;-64
2023/04/29 10:00:21;;;;;;;6.70;4.50;;;;;;;16.16;63.67;98785.69;4942924;28;20240;-64
2023/04/29 10:02:49;;;;;;;8.83;4.80;;;;;;;16.49;64.51;98776.53;4946219;28;20327;-64
2023/04/29 10:05:16;;;;;;;6.27;4.80;;;;;;;16.29;62.69;98778.94;4943626;28;20229;-64
2023/04/29 10:07:46;;;;;;;5.63;4.13;;;;;;;16.34;63.36;98780.00;4949074;28;20709;-63
2023/04/29 10:10:13;;;;;;;6.73;4.73;;;;;;;16.61;62.15;98782.13;4946539;28;20230;-63
2023/04/29 10:12:41;;;;;;;7.67;4.80;;;;;;;15.89;62.34;98780.06;4948967;28;20235;-64
2023/04/29 10:15:17;;;;;;;6.60;4.50;;;;;;;16.33;63.44;98786.28;4946032;28;20233;-64
2023/04/29 10:17:47;;;;;;;5.27;3.93;;;;;;;16.68;64.69;98780.38;4948718;28;20252;-64
2023/04/29 10:20:15;;;;;;;6.20;4.13;;;;;;;16.51;62.53;98780.59;4945175;28;20229;-64
2023/04/29 10:22:46;;;;;;;6.53;4.80;;;;;;;16.21;61.62;98785.13;4948897;28;20240;-64
2023/04/29 10:25:14;;;;;;;6.57;5.00;;;;;;;16.46;62.72;98779.53;4946534;28;20320;-64
2023/04/29 10:27:43;;;;;;;8.13;4.40;;;;;;;16.78;58.58;98782.72;4948265;28;20300;-64
2023/04/29 10:30:14;;;;;;;5.80;4.23;;;;;;;16.94;59.90;98782.50;4946665;28;20418;-64
2023/04/29 10:32:41;;;;;;;5.10;3.90;;;;;;;16.96;58.70;98769.09;4949167;28;20238;-64
2023/04/29 10:35:09;;;;;;;5.00;3.40;;;;;;;17.49;55.59;98771.38;4945831;28;20236;-63
2023/04/29 10:37:36;;;;;;;5.03;4.00;;;;;;;17.60;55.65;98771.88;4949241;28;20317;-63
2023/04/29 10:40:12;;;;;;;4.77;3.40;;;;;;;17.72;56.66;98767.69;4949903;28;20697;-63
2023/04/29 10:42:45;;;;;;;4.50;3.57;;;;;;;17.91;56.96;98773.28;4948149;28;20239;-64
2023/04/29 10:45:21;;;;;;;6.03;3.73;;;;;;;18.02;55.94;98764.81;4945548;28;20319;-64
2023/04/29 10:48:08;;;;;;;7.13;3.47;;;;;;;18.13;53.29;98766.09;4949875;28;20245;-64
2023/04/29 10:50:42;;;;;;;3.40;3.00;;;;;;;18.31;55.09;98768.19;4946658;28;20245;-64
2023/04/29 10:53:08;;;;;;;6.33;3.40;;;;;;;18.52;54.64;98763.78;4929411;28;20286;-64
2023/04/29 10:55:37;;;;;;;4.37;3.73;;;;;;;18.68;50.93;98758.13;4949300;28;20238;-64
2023/04/29 10:58:04;;;;;;;5.40;3.60;;;;;;;18.13;56.01;98761.63;4948906;28;20236;-64
2023/04/29 11:00:34;;;;;;;4.60;3.70;;;;;;;18.29;54.34;98754.34;4945780;28;20257;-64
2023/04/29 11:03:05;;;;;;;5.67;3.67;;;;;;;19.10;51.73;98754.53;4948169;28;20293;-64
2023/04/29 11:05:32;;;;;;;4.13;3.60;;;;;;;19.25;50.94;98752.50;4946477;28;20293;-64
2023/04/29 11:08:09;;;;;;;7.27;4.40;;;;;;;19.01;54.46;98754.75;4950771;28;20895;-64
2023/04/29 11:10:37;;;;;;;5.17;4.13;;;;;;;19.51;51.92;98752.69;4947539;28;20325;-64
2023/04/29 11:13:24;;;;;;;6.30;4.57;;;;;;;19.21;50.51;98759.22;4950019;28;20231;-64
2023/04/29 11:15:53;;;;;;;5.10;3.70;;;;;;;19.38;52.95;98749.06;4945704;28;20326;-64
2023/04/29 11:18:19;;;;;;;4.97;3.97;;;;;;;19.28;50.08;98759.22;4944965;28;20702;-64
2023/04/29 11:21:14;;;;;;;4.93;3.73;;;;;;;17.95;52.40;98750.75;4950687;28;20308;-64
2023/04/29 11:23:43;;;;;;;5.37;3.43;;;;;;;18.24;55.49;98756.78;4945172;28;20648;-64
2023/04/29 11:26:10;;;;;;;4.80;4.03;;;;;;;18.38;51.00;98744.44;4946250;28;20270;-64
2023/04/29 11:28:37;;;;;;;4.30;3.90;;;;;;;18.36;50.64;98757.03;4948722;28;20243;-64
2023/04/29 11:31:07;;;;;;;4.40;3.60;;;;;;;18.67;50.47;98750.41;4950322;28;20234;-64
2023/04/29 11:33:34;;;;;;;5.30;3.40;;;;;;;18.22;50.96;98745.59;4946031;28;20239;-63
2023/04/29 11:36:01;;;;;;;5.20;3.40;;;;;;;18.42;51.77;98749.13;4949014;28;20325;-63
2023/04/29 11:38:29;;;;;;;6.03;3.60;;;;;;;18.12;49.95;98748.63;4945797;28;20243;-63
2023/04/29 11:40:56;;;;;;;3.50;2.87;;;;;;;18.19;52.00;98752.09;4946921;28;20239;-63
2023/04/29 11:43:24;;;;;;;3.83;3.17;;;;;;;17.92;51.57;98745.88;4944794;28;20234;-63